KAXV/AXV METAR and TAF weather

Enter ICAO airport designator
Station Type Date Time Source
KAXV METAR 2019/02/21 11:56 UTC NOAA

KAXV 211156Z AUTO 25009G15KT 10SM OVC021 01/M01 A3007 RMK AO2


Station Type Date Time Source
KAXV Decoded METAR 2019/02/21 11:56 UTC NOAA

Station name not available
Feb 21, 2019 - 06:56 AM EST / 2019.02.21 1156 UTC
Wind: from the WSW (250 degrees) at 10 MPH (9 KT) gusting to 17 MPH (15 KT):0
Visibility: 10 mile(s):0
Sky conditions: overcast
Temperature: 33 F (1 C)
Windchill: 24 F (-4 C):1
Dew Point: 30 F (-1 C)
Relative Humidity: 86%
Pressure (altimeter): 30.07 in. Hg (1018 hPa)
ob: KAXV 211156Z AUTO 25009G15KT 10SM OVC021 01/M01 A3007 RMK AO2
cycle: 12

Station Type Date Time Source
KAXV TAF UTC NOAA

Error!


Example: see airport list